Northbridge, MA (01534)

9:30 PM EST on January 25, 2015 (GMT -0500)
McQuades Lane | Change Station
CLOSE
Current Station
Personal Weather Station
Location: Northbridge, MA
Elevation: 330 ft
Nearby Weather Stations
Active Advisory: Blizzard Warning

Elev 330 ft 42.16 °N, 71.66 °W | Updated 4 seconds ago

Partly Cloudy
Partly Cloudy
19.8 °F
Feels Like 20 °F
N
2.2
Wind Variable Wind from NE
Gusts 3.8 mph

Today
High -- | Low -- °F
--% Chance of Precip.
Yesterday
High -- | Low -- °F
Precip. -- in
7:06 AM 4:51 PM
Waxing Crescent, 38% visible
Pressure 29.95 in
Visibility 10.0 miles
Clouds Clear
Windchill 20 °F
Dew Point 4 °F
Humidity 50%
Rainfall 0.05 in
Snow Depth Not available.
UV 0.0 out of 12
Pollen .10 out of 12
Air Quality Not available.
Flu Activity Not available.
METAR KORH 260154Z AUTO 31005KT 10SM CLR M08/M16 A2990 RMK AO2 SLP141 LAST AUGMENTED OBS T10831161

More Conditions Fewer Conditions

Pressure 29.95 in
Visibility 10.0 miles
Clouds Clear
Windchill 20 °F
Dew Point 4 °F
Humidity 50%
Rainfall 0.05 in
Snow Depth Not available.
UV 0.0 out of 12
Pollen .10 out of 12
Air Quality Not available.
Flu Activity Not available.
METAR KORH 260154Z AUTO 31005KT 10SM CLR M08/M16 A2990 RMK AO2 SLP141 LAST AUGMENTED OBS T10831161

More Conditions Fewer Conditions

10-Day Weather Forecast

Almanac

Astronomy

Jan. 25, 2015 Rise Set
Actual Time
Civil Twilight
Nautical Twilight
Astronomical Twilight
Moon
Length of Visible Light
Length of Day
Tomorrow will be .
, % of the Moon is Illuminated

Today's Extremes

State Highs State Lows

Community

WunderPhotos

Upload Photos

1,790,082 photos uploaded!

WunderBlogs® & News

Nearby

Air Quality

  Air Quality AQ Index Pollutant
Not available.

Snow Depth

Station Depth Elevation

Earthquake Activity

City Distance Mag. Time & Date
Minimum magnitude displayed is 2.5.

Coastal Water Temperatures

Place Temperature

Nearby Weather Stations